Details for Air Canada Rouge at CYVR




Go Back


Latest METAR
Local Time

CYVR 241346Z 32012KT 12SM -SN FEW015 BKN029 OVC045 01/M01 A2992 RMK SC2SC5SC1 SLP133

24/02/2018, 05:50:16

Description
Results
Air Canada Rouge Logo
Number of Pilots based at CYVR
0 Pilots Based here
Number of Air Canada Rouge Flights Departed from CYVR
0 Flights Departed
Number of Air Canada Rouge Flights Arrived at CYVR
0 Flights Arrived
Number of Air Canada Rouge Schedules Departing from CYVR
14 Schedules
Number of Air Canada Rouge Schedules Arriving at CYVR
18 Schedules
Number of Air Canada Rouge Schedules Departing from CYVR availible today
7 Schedules Today
Number of Air Canada Rouge Schedules Arriving at CYVR availible today
8 Schedules Today
Average Landing Rate at CYVR
-185 fpm
Air Canada Rouge Average Landing Rate at CYVR
0 fpm
Total Fuel Purchased at CYVR by Air Canada Rouge
0.00 kgs / 0.00 lbs

Pilots Based at CYVR


Pilot ID
Pilot Name
Pilot Rank
No. of Flights
No. of Flying Hours
There are no pilots assigned to this hub!   Will you be the first?
Content